Time;durP1;ratioP1;P1;durP2;ratioP2;P2;SDS_P1;SDS_P2;PMS_P1;PMS_P2;Temp;Humidity;BMP_temperature;BMP_pressure;BME280_temperature;BME280_humidity;BME280_pressure;Samples;Min_cycle;Max_cycle;Signal;HPM_P1;HPM_P2
2022/07/21 00:01:09;;;;;;;4.63;3.50;;;;;;;;;;4844930;29;20025;-80
2022/07/21 00:03:35;;;;;;;4.45;3.47;;;;;;;;;;4845142;29;20061;-83
2022/07/21 00:06:01;;;;;;;5.43;3.58;;;;;;;;;;4861961;29;20040;-81
2022/07/21 00:08:28;;;;;;;5.75;3.60;;;;;;;;;;4845012;29;20037;-79
2022/07/21 00:10:54;;;;;;;4.40;3.60;;;;;;;;;;4861797;29;20376;-78
2022/07/21 00:13:20;;;;;;;5.00;3.60;;;;;;;;;;4861632;29;20026;-82
2022/07/21 00:15:46;;;;;;;3.83;3.25;;;;;;;;;;4861279;29;20085;-82
2022/07/21 00:18:13;;;;;;;4.75;3.20;;;;;;;;;;4861676;29;20049;-82
2022/07/21 00:20:39;;;;;;;5.90;3.63;;;;;;;;;;4861447;29;20480;-83
2022/07/21 00:23:05;;;;;;;7.30;3.72;;;;;;;;;;4861142;29;20050;-78
2022/07/21 00:25:31;;;;;;;5.90;3.60;;;;;;;;;;4844565;29;20138;-78
2022/07/21 00:27:58;;;;;;;5.78;3.70;;;;;;;;;;4844657;29;20108;-79
2022/07/21 00:30:24;;;;;;;4.10;3.35;;;;;;;;;;4861402;29;20034;-78
2022/07/21 00:32:50;;;;;;;4.82;3.47;;;;;;;;;;4844199;29;20389;-78
2022/07/21 00:35:16;;;;;;;9.48;3.83;;;;;;;;;;4845865;29;20043;-77
2022/07/21 00:37:43;;;;;;;4.88;3.38;;;;;;;;;;4862367;29;20514;-77
2022/07/21 00:40:15;;;;;;;7.75;3.92;;;;;;;;;;4863963;29;20086;-81
2022/07/21 00:42:42;;;;;;;6.85;3.60;;;;;;;;;;4847699;29;20068;-78
2022/07/21 00:45:09;;;;;;;6.68;3.70;;;;;;;;;;4860893;29;20077;-77
2022/07/21 00:47:35;;;;;;;5.25;3.45;;;;;;;;;;4861141;29;20026;-77
2022/07/21 00:50:03;;;;;;;8.52;3.63;;;;;;;;;;4860955;29;20040;-78
2022/07/21 00:52:29;;;;;;;4.75;3.53;;;;;;;;;;4848008;29;20037;-80
2022/07/21 00:54:55;;;;;;;3.88;3.28;;;;;;;;;;4860849;29;20388;-77
2022/07/21 00:57:22;;;;;;;6.43;3.58;;;;;;;;;;4860991;29;20094;-77
2022/07/21 00:59:48;;;;;;;6.28;3.40;;;;;;;;;;4862839;29;20370;-78
2022/07/21 01:02:15;;;;;;;6.40;3.70;;;;;;;;;;4864794;29;20481;-80
2022/07/21 01:04:41;;;;;;;6.65;3.58;;;;;;;;;;4848404;29;20400;-80
2022/07/21 01:07:08;;;;;;;9.68;3.47;;;;;;;;;;4850115;29;20436;-80
2022/07/21 01:09:35;;;;;;;8.20;4.10;;;;;;;;;;4849749;29;20141;-81
2022/07/21 01:12:01;;;;;;;5.03;3.50;;;;;;;;;;4864546;29;20029;-79
2022/07/21 01:14:28;;;;;;;6.40;3.50;;;;;;;;;;4847741;29;20030;-78
2022/07/21 01:16:54;;;;;;;4.38;3.60;;;;;;;;;;4847875;29;20426;-82
2022/07/21 01:19:20;;;;;;;7.97;3.90;;;;;;;;;;4847715;29;20033;-78
2022/07/21 01:21:47;;;;;;;7.03;4.13;;;;;;;;;;4864393;29;20466;-80
2022/07/21 01:24:13;;;;;;;6.80;3.55;;;;;;;;;;4866007;29;20041;-83
2022/07/21 01:26:43;;;;;;;7.57;3.75;;;;;;;;;;4865414;29;20109;-79
2022/07/21 01:29:11;;;;;;;6.85;3.88;;;;;;;;;;4848700;29;20052;-81
2022/07/21 01:31:37;;;;;;;6.55;3.50;;;;;;;;;;4864432;29;20085;-81
2022/07/21 01:34:03;;;;;;;4.18;3.50;;;;;;;;;;4849416;29;20462;-82
2022/07/21 01:36:30;;;;;;;8.23;3.83;;;;;;;;;;4847811;29;20033;-78
2022/07/21 01:41:41;;;;;;;6.13;3.30;;;;;;;;;;4864591;29;20045;-82
2022/07/21 01:44:09;;;;;;;4.55;3.72;;;;;;;;;;4847248;29;20049;-82
2022/07/21 01:46:37;;;;;;;5.68;3.45;;;;;;;;;;4850162;29;20392;-77
2022/07/21 01:49:04;;;;;;;5.40;3.50;;;;;;;;;;4865335;29;20392;-80
2022/07/21 01:51:30;;;;;;;4.90;3.45;;;;;;;;;;4865669;29;20029;-80
2022/07/21 01:53:56;;;;;;;5.30;3.20;;;;;;;;;;4847943;29;20048;-78
2022/07/21 01:56:24;;;;;;;4.95;3.80;;;;;;;;;;4863781;29;20041;-77
2022/07/21 01:58:51;;;;;;;12.10;4.30;;;;;;;;;;4847888;29;20029;-80
2022/07/21 02:01:18;;;;;;;6.72;4.07;;;;;;;;;;4847835;29;20034;-80
2022/07/21 02:03:45;;;;;;;7.00;3.92;;;;;;;;;;4850154;29;20445;-81
2022/07/21 02:06:12;;;;;;;8.93;4.07;;;;;;;;;;4847410;29;20114;-78
2022/07/21 02:08:38;;;;;;;5.68;3.83;;;;;;;;;;4864003;29;20468;-81
2022/07/21 02:11:04;;;;;;;4.47;3.65;;;;;;;;;;4847458;29;20041;-78
2022/07/21 02:13:31;;;;;;;5.95;3.78;;;;;;;;;;4865369;29;20026;-79
2022/07/21 02:15:57;;;;;;;5.80;3.42;;;;;;;;;;4846523;29;20073;-77
2022/07/21 02:18:23;;;;;;;5.20;3.50;;;;;;;;;;4851603;29;20437;-82
2022/07/21 02:20:51;;;;;;;3.85;2.97;;;;;;;;;;4851969;29;20539;-82
2022/07/21 02:23:18;;;;;;;9.15;3.92;;;;;;;;;;4850800;29;20532;-82
2022/07/21 02:25:45;;;;;;;7.18;3.28;;;;;;;;;;4855215;29;20373;-81
2022/07/21 02:28:11;;;;;;;5.22;3.35;;;;;;;;;;4867644;29;20400;-82
2022/07/21 02:30:38;;;;;;;5.30;3.17;;;;;;;;;;4851723;29;20013;-82
2022/07/21 02:33:05;;;;;;;4.63;3.60;;;;;;;;;;4851171;29;20503;-81
2022/07/21 02:35:31;;;;;;;5.65;3.58;;;;;;;;;;4852158;29;20033;-83
2022/07/21 02:37:57;;;;;;;4.03;3.10;;;;;;;;;;4850092;29;20473;-82
2022/07/21 02:40:24;;;;;;;4.45;3.70;;;;;;;;;;4850206;29;20057;-82
2022/07/21 02:42:51;;;;;;;5.78;3.72;;;;;;;;;;4866522;29;20041;-82
2022/07/21 02:45:19;;;;;;;8.25;3.90;;;;;;;;;;4849718;29;20116;-82
2022/07/21 02:47:50;;;;;;;7.85;3.47;;;;;;;;;;4849716;29;20026;-82
2022/07/21 02:50:18;;;;;;;4.35;3.33;;;;;;;;;;4849954;29;20025;-82
2022/07/21 02:52:45;;;;;;;5.85;3.45;;;;;;;;;;4849976;29;20381;-82
2022/07/21 02:55:13;;;;;;;5.85;3.47;;;;;;;;;;4851196;29;20030;-82
2022/07/21 02:57:40;;;;;;;4.93;3.63;;;;;;;;;;4850557;29;20393;-80
2022/07/21 03:00:09;;;;;;;4.45;3.50;;;;;;;;;;4850217;29;20064;-80
2022/07/21 03:02:38;;;;;;;5.43;3.13;;;;;;;;;;4851454;29;20036;-83
2022/07/21 03:05:06;;;;;;;6.05;4.10;;;;;;;;;;4850766;29;20404;-80
2022/07/21 03:07:33;;;;;;;4.95;3.58;;;;;;;;;;4853107;29;20438;-80
2022/07/21 03:10:13;;;;;;;;;;;;;;;;;;;;;
2022/07/21 03:12:40;;;;;;;5.88;3.22;;;;;;;;;;4867207;29;20461;-82
2022/07/21 03:15:07;;;;;;;5.88;3.63;;;;;;;;;;4849086;29;20125;-81
2022/07/21 03:17:34;;;;;;;6.45;3.20;;;;;;;;;;4850707;29;20471;-83
2022/07/21 03:20:01;;;;;;;4.07;3.30;;;;;;;;;;4849702;29;20453;-82
2022/07/21 03:22:27;;;;;;;5.53;4.07;;;;;;;;;;4851483;29;20049;-82
2022/07/21 03:24:54;;;;;;;5.53;3.90;;;;;;;;;;4850950;29;20037;-82
2022/07/21 03:27:20;;;;;;;4.07;3.33;;;;;;;;;;4849872;29;20025;-80
2022/07/21 03:29:47;;;;;;;4.68;3.63;;;;;;;;;;4849255;29;20041;-82
2022/07/21 03:32:15;;;;;;;6.32;3.40;;;;;;;;;;4849958;29;20036;-82
2022/07/21 03:34:41;;;;;;;7.35;3.78;;;;;;;;;;4849573;29;20396;-83
2022/07/21 03:37:08;;;;;;;4.47;3.47;;;;;;;;;;4850945;29;20431;-82
2022/07/21 03:39:34;;;;;;;4.38;3.30;;;;;;;;;;4849398;29;20034;-82
2022/07/21 03:42:01;;;;;;;6.97;3.38;;;;;;;;;;4851368;29;20424;-82
2022/07/21 03:44:27;;;;;;;5.57;3.90;;;;;;;;;;4850261;29;20435;-84
2022/07/21 03:46:54;;;;;;;6.50;4.00;;;;;;;;;;4854010;29;20050;-83
2022/07/21 03:49:22;;;;;;;6.22;3.50;;;;;;;;;;4865573;29;20025;-81
2022/07/21 03:51:49;;;;;;;5.07;3.95;;;;;;;;;;4849438;29;20029;-80
2022/07/21 03:54:16;;;;;;;7.93;3.78;;;;;;;;;;4851034;29;20389;-81
2022/07/21 03:56:43;;;;;;;7.30;4.05;;;;;;;;;;4850320;29;20025;-82
2022/07/21 03:59:09;;;;;;;8.32;6.65;;;;;;;;;;4849300;29;20396;-82
2022/07/21 04:01:36;;;;;;;5.65;3.88;;;;;;;;;;4849784;29;20400;-83
2022/07/21 04:04:06;;;;;;;8.15;3.80;;;;;;;;;;4850135;29;20483;-82
2022/07/21 04:06:33;;;;;;;10.82;4.53;;;;;;;;;;4852899;29;20444;-83
2022/07/21 04:09:01;;;;;;;6.57;3.97;;;;;;;;;;4848912;29;20499;-82
2022/07/21 04:11:30;;;;;;;4.57;3.60;;;;;;;;;;4849306;29;20036;-82
2022/07/21 04:13:57;;;;;;;7.32;3.80;;;;;;;;;;4848994;29;20170;-81
2022/07/21 04:16:23;;;;;;;7.13;4.80;;;;;;;;;;4848638;29;20029;-82
2022/07/21 04:18:50;;;;;;;5.65;3.80;;;;;;;;;;4845749;29;20026;-82
2022/07/21 04:21:16;;;;;;;8.77;3.83;;;;;;;;;;4851008;29;20053;-81
2022/07/21 04:23:42;;;;;;;6.53;4.07;;;;;;;;;;4844747;29;20400;-81
2022/07/21 04:26:08;;;;;;;7.47;3.78;;;;;;;;;;4844756;29;20041;-82
2022/07/21 04:28:34;;;;;;;6.75;4.35;;;;;;;;;;4844429;29;20039;-81
2022/07/21 04:31:00;;;;;;;6.78;3.97;;;;;;;;;;4861308;29;20392;-83
2022/07/21 04:33:26;;;;;;;6.38;3.75;;;;;;;;;;4844704;29;20050;-82
2022/07/21 04:35:52;;;;;;;7.57;4.30;;;;;;;;;;4844654;29;20507;-82
2022/07/21 04:38:19;;;;;;;7.18;4.50;;;;;;;;;;4844815;29;20034;-82
2022/07/21 04:40:45;;;;;;;6.57;4.75;;;;;;;;;;4845013;29;20470;-80
2022/07/21 04:43:11;;;;;;;9.73;6.05;;;;;;;;;;4851856;29;20041;-82
2022/07/21 04:45:37;;;;;;;8.10;5.82;;;;;;;;;;4848608;29;20489;-82
2022/07/21 04:48:03;;;;;;;13.20;5.70;;;;;;;;;;4844423;29;20501;-80
2022/07/21 04:50:29;;;;;;;8.63;5.40;;;;;;;;;;4843935;29;20049;-79
2022/07/21 04:52:56;;;;;;;6.72;5.00;;;;;;;;;;4860945;29;20113;-80
2022/07/21 04:55:23;;;;;;;7.05;5.18;;;;;;;;;;4844321;29;20040;-80
2022/07/21 04:57:50;;;;;;;7.70;4.78;;;;;;;;;;4860785;29;20059;-78
2022/07/21 05:00:17;;;;;;;6.47;4.68;;;;;;;;;;4860845;29;20033;-77
2022/07/21 05:02:44;;;;;;;5.68;4.28;;;;;;;;;;4844094;29;20120;-81
2022/07/21 05:05:10;;;;;;;6.68;5.07;;;;;;;;;;4844616;29;20513;-83
2022/07/21 05:07:37;;;;;;;6.53;5.07;;;;;;;;;;4844561;29;20026;-81
2022/07/21 05:10:06;;;;;;;8.65;4.53;;;;;;;;;;4844289;29;20034;-81
2022/07/21 05:12:33;;;;;;;6.40;3.83;;;;;;;;;;4843976;29;20069;-83
2022/07/21 05:14:59;;;;;;;6.57;4.07;;;;;;;;;;4849193;29;20120;-83
2022/07/21 05:17:25;;;;;;;12.45;4.65;;;;;;;;;;4847662;29;20419;-83
2022/07/21 05:19:52;;;;;;;12.10;4.60;;;;;;;;;;4845189;29;20048;-82
2022/07/21 05:22:18;;;;;;;7.97;4.38;;;;;;;;;;4854173;29;20073;-82
2022/07/21 05:24:44;;;;;;;5.32;4.28;;;;;;;;;;4847059;29;20069;-82
2022/07/21 05:27:10;;;;;;;7.32;4.60;;;;;;;;;;4844279;29;20026;-82
2022/07/21 05:29:36;;;;;;;7.90;4.20;;;;;;;;;;4844209;29;20034;-82
2022/07/21 05:32:02;;;;;;;10.20;4.70;;;;;;;;;;4860661;29;20030;-82
2022/07/21 05:34:28;;;;;;;6.57;4.10;;;;;;;;;;4860836;29;20150;-82
2022/07/21 05:36:55;;;;;;;10.25;4.60;;;;;;;;;;4844253;29;20484;-82
2022/07/21 05:39:21;;;;;;;7.78;4.60;;;;;;;;;;4860834;29;20561;-82
2022/07/21 05:41:47;;;;;;;14.10;6.55;;;;;;;;;;4864666;29;20136;-82
2022/07/21 05:44:13;;;;;;;11.05;6.88;;;;;;;;;;4860684;29;20552;-81
2022/07/21 05:46:39;;;;;;;11.93;4.60;;;;;;;;;;4866895;29;20026;-81
2022/07/21 05:49:05;;;;;;;7.90;4.97;;;;;;;;;;4843944;29;20061;-82
2022/07/21 05:51:31;;;;;;;8.65;4.70;;;;;;;;;;4843646;29;20507;-82
2022/07/21 05:53:57;;;;;;;11.77;4.25;;;;;;;;;;4846610;29;20030;-82
2022/07/21 05:56:23;;;;;;;9.00;5.28;;;;;;;;;;4847280;29;20029;-82
2022/07/21 05:58:49;;;;;;;8.63;5.07;;;;;;;;;;4847346;29;20074;-82
2022/07/21 06:01:16;;;;;;;10.70;5.93;;;;;;;;;;4863709;29;20057;-82
2022/07/21 06:03:42;;;;;;;10.13;5.05;;;;;;;;;;4863806;29;20025;-82
2022/07/21 06:06:09;;;;;;;6.88;4.63;;;;;;;;;;4863939;29;20041;-83
2022/07/21 06:08:37;;;;;;;12.48;5.18;;;;;;;;;;4847104;29;20077;-82
2022/07/21 06:11:03;;;;;;;13.38;5.70;;;;;;;;;;4847252;29;20037;-83
2022/07/21 06:13:29;;;;;;;7.03;4.50;;;;;;;;;;4863604;29;20036;-80
2022/07/21 06:15:55;;;;;;;12.38;5.00;;;;;;;;;;4863711;29;20035;-83
2022/07/21 06:18:21;;;;;;;8.50;4.97;;;;;;;;;;4846882;29;20029;-79
2022/07/21 06:20:47;;;;;;;10.05;4.80;;;;;;;;;;4863697;29;20401;-82
2022/07/21 06:23:14;;;;;;;6.43;4.70;;;;;;;;;;4846473;29;20053;-82
2022/07/21 06:25:40;;;;;;;12.05;5.30;;;;;;;;;;4846584;29;20052;-83
2022/07/21 06:28:06;;;;;;;5.95;4.22;;;;;;;;;;4846969;29;20030;-81
2022/07/21 06:30:32;;;;;;;7.88;4.47;;;;;;;;;;4846487;29;20046;-83
2022/07/21 06:32:58;;;;;;;9.60;5.78;;;;;;;;;;4863132;29;20030;-82
2022/07/21 06:35:24;;;;;;;12.15;5.72;;;;;;;;;;4846879;29;20036;-82
2022/07/21 06:37:50;;;;;;;12.18;4.68;;;;;;;;;;4846675;29;20068;-82
2022/07/21 06:40:16;;;;;;;10.40;4.22;;;;;;;;;;4846274;29;20033;-81
2022/07/21 06:42:43;;;;;;;6.97;4.63;;;;;;;;;;4846606;29;20029;-83
2022/07/21 06:45:09;;;;;;;9.20;4.60;;;;;;;;;;4846240;29;20043;-82
2022/07/21 06:47:35;;;;;;;7.55;4.88;;;;;;;;;;4846167;29;20031;-82
2022/07/21 06:50:04;;;;;;;11.63;5.10;;;;;;;;;;4863015;29;20512;-81
2022/07/21 06:52:30;;;;;;;8.73;5.25;;;;;;;;;;4846344;29;20124;-82
2022/07/21 06:54:56;;;;;;;12.63;5.32;;;;;;;;;;4846429;29;20137;-81
2022/07/21 06:57:23;;;;;;;7.55;4.80;;;;;;;;;;4862715;29;20033;-81
2022/07/21 06:59:49;;;;;;;7.63;5.20;;;;;;;;;;4846527;29;20428;-81
2022/07/21 07:02:15;;;;;;;7.97;5.35;;;;;;;;;;4862817;29;20056;-80
2022/07/21 07:04:41;;;;;;;6.13;4.47;;;;;;;;;;4845378;29;20037;-81
2022/07/21 07:07:07;;;;;;;9.68;4.43;;;;;;;;;;4862719;29;20025;-81
2022/07/21 07:09:34;;;;;;;9.32;4.82;;;;;;;;;;4862461;29;20037;-79
2022/07/21 07:12:03;;;;;;;8.88;5.18;;;;;;;;;;4862307;29;20041;-81
2022/07/21 07:14:32;;;;;;;10.23;6.55;;;;;;;;;;4862488;29;20033;-83
2022/07/21 07:16:59;;;;;;;8.73;6.32;;;;;;;;;;4845694;29;20025;-82
2022/07/21 07:19:25;;;;;;;11.32;6.00;;;;;;;;;;4862351;29;20488;-79
2022/07/21 07:21:52;;;;;;;10.27;5.80;;;;;;;;;;4854230;29;20136;-81
2022/07/21 07:24:20;;;;;;;8.25;6.10;;;;;;;;;;4853032;29;20038;-80
2022/07/21 07:26:56;;;;;;;10.93;7.03;;;;;;;;;;4873624;29;20029;-81
2022/07/21 07:29:28;;;;;;;11.02;7.25;;;;;;;;;;4853026;29;20416;-81
2022/07/21 07:31:54;;;;;;;7.95;5.05;;;;;;;;;;4847393;29;20033;-78
2022/07/21 07:34:20;;;;;;;7.18;5.45;;;;;;;;;;4851182;29;20040;-81
2022/07/21 07:36:48;;;;;;;9.65;6.90;;;;;;;;;;4851778;29;20037;-81
2022/07/21 07:39:17;;;;;;;8.90;6.00;;;;;;;;;;4853854;29;20417;-80
2022/07/21 07:41:44;;;;;;;6.38;4.85;;;;;;;;;;4848019;29;20512;-78
2022/07/21 07:44:11;;;;;;;6.85;5.30;;;;;;;;;;4851769;29;20048;-82
2022/07/21 07:46:52;;;;;;;10.95;5.82;;;;;;;;;;4855628;29;20369;-84
2022/07/21 07:49:19;;;;;;;10.15;6.82;;;;;;;;;;4818800;29;20033;-82
2022/07/21 07:51:46;;;;;;;10.13;5.78;;;;;;;;;;4849682;29;20040;-84
2022/07/21 07:54:17;;;;;;;21.58;8.07;;;;;;;;;;4852274;29;20034;-83
2022/07/21 07:56:49;;;;;;;10.18;6.22;;;;;;;;;;4855270;29;20445;-83
2022/07/21 07:59:16;;;;;;;8.23;5.57;;;;;;;;;;4850081;29;20033;-82
2022/07/21 08:01:51;;;;;;;9.02;5.47;;;;;;;;;;4851484;29;20038;-81
2022/07/21 08:04:21;;;;;;;8.93;5.68;;;;;;;;;;4844850;29;20045;-81
2022/07/21 08:06:47;;;;;;;7.43;6.38;;;;;;;;;;4861770;29;20033;-84
2022/07/21 08:09:14;;;;;;;7.38;4.22;;;;;;;;;;4844718;29;20038;-81
2022/07/21 08:11:40;;;;;;;8.35;4.95;;;;;;;;;;4844539;29;20396;-78
2022/07/21 08:14:06;;;;;;;7.72;6.00;;;;;;;;;;4846317;29;20499;-84
2022/07/21 08:16:37;;;;;;;8.90;5.78;;;;;;;;;;4861361;29;20116;-77
2022/07/21 08:19:07;;;;;;;6.85;5.28;;;;;;;;;;4855824;29;20037;-82
2022/07/21 08:21:33;;;;;;;5.70;4.57;;;;;;;;;;4849985;29;20572;-81
2022/07/21 08:24:01;;;;;;;5.45;4.25;;;;;;;;;;4844882;29;20396;-80
2022/07/21 08:26:27;;;;;;;11.30;5.15;;;;;;;;;;4861153;29;20864;-77
2022/07/21 08:28:54;;;;;;;6.82;4.82;;;;;;;;;;4861204;29;20030;-77
2022/07/21 08:31:21;;;;;;;8.18;4.20;;;;;;;;;;4844477;29;20575;-78
2022/07/21 08:33:47;;;;;;;8.40;5.35;;;;;;;;;;4843885;29;20034;-80
2022/07/21 08:36:13;;;;;;;8.88;4.57;;;;;;;;;;4845469;29;20396;-84
2022/07/21 08:38:39;;;;;;;7.45;4.57;;;;;;;;;;4850777;29;20040;-84
2022/07/21 08:41:08;;;;;;;7.25;4.38;;;;;;;;;;4853078;29;20026;-84
2022/07/21 08:43:34;;;;;;;9.65;4.60;;;;;;;;;;4844870;29;20357;-79
2022/07/21 08:46:00;;;;;;;7.28;4.75;;;;;;;;;;4861367;29;20037;-82
2022/07/21 08:48:29;;;;;;;8.57;4.53;;;;;;;;;;4844737;29;20026;-84
2022/07/21 08:50:55;;;;;;;5.57;4.07;;;;;;;;;;4844274;29;20166;-79
2022/07/21 08:53:22;;;;;;;11.10;5.10;;;;;;;;;;4861064;29;20026;-81
2022/07/21 08:56:04;;;;;;;7.30;5.30;;;;;;;;;;4871336;29;20032;-80
2022/07/21 08:58:35;;;;;;;6.20;4.50;;;;;;;;;;4852571;29;20036;-80
2022/07/21 09:01:06;;;;;;;5.33;3.93;;;;;;;;;;4851717;29;20404;-81
2022/07/21 09:03:33;;;;;;;10.10;4.75;;;;;;;;;;4853142;29;20400;-81
2022/07/21 09:06:07;;;;;;;6.35;4.53;;;;;;;;;;4853535;29;20472;-81
2022/07/21 09:08:38;;;;;;;8.32;4.43;;;;;;;;;;4865297;29;20025;-79
2022/07/21 09:11:22;;;;;;;11.00;4.95;;;;;;;;;;4867959;29;20030;-81
2022/07/21 09:13:51;;;;;;;;;;;;;;;;;;4851111;29;20497;-81
2022/07/21 09:16:35;;;;;;;8.25;3.72;;;;;;;;;;4851304;29;19909;-82
2022/07/21 09:19:01;;;;;;;5.57;3.85;;;;;;;;;;4852642;29;20404;-81
2022/07/21 09:21:28;;;;;;;7.78;5.55;;;;;;;;;;4852898;29;20113;-81
2022/07/21 09:24:12;;;;;;;6.18;3.75;;;;;;;;;;4863298;29;20040;-84
2022/07/21 09:26:57;;;;;;;5.35;3.22;;;;;;;;;;4869458;29;20030;-81
2022/07/21 09:29:24;;;;;;;7.03;4.10;;;;;;;;;;4855223;29;20033;-81
2022/07/21 09:31:54;;;;;;;4.63;4.10;;;;;;;;;;4872867;29;20055;-82
2022/07/21 09:34:21;;;;;;;7.25;3.60;;;;;;;;;;4856439;29;20404;-81
2022/07/21 09:37:05;;;;;;;7.07;3.85;;;;;;;;;;4854269;29;20030;-82
2022/07/21 09:39:43;;;;;;;4.63;3.67;;;;;;;;;;4856144;29;20483;-80
2022/07/21 09:42:17;;;;;;;6.53;4.13;;;;;;;;;;4857484;29;20029;-80
2022/07/21 09:44:46;;;;;;;10.18;4.00;;;;;;;;;;4856001;29;20042;-81
2022/07/21 09:47:15;;;;;;;7.40;3.70;;;;;;;;;;4855573;29;20029;-81
2022/07/21 09:49:44;;;;;;;5.22;4.13;;;;;;;;;;4855194;29;20021;-82
2022/07/21 09:52:20;;;;;;;7.22;3.78;;;;;;;;;;4854251;29;20057;-80
2022/07/21 09:54:51;;;;;;;6.72;4.45;;;;;;;;;;4855148;29;20025;-80
2022/07/21 09:57:18;;;;;;;8.38;4.72;;;;;;;;;;4855457;29;20022;-81
2022/07/21 09:59:49;;;;;;;4.93;3.97;;;;;;;;;;4855433;29;20444;-83
2022/07/21 10:02:15;;;;;;;;;;;;;;;;;;4852313;29;20405;-85
2022/07/21 10:04:42;;;;;;;6.68;3.85;;;;;;;;;;4852745;29;19984;-85
2022/07/21 10:07:08;;;;;;;8.27;4.80;;;;;;;;;;4850804;29;20038;-85
2022/07/21 10:09:35;;;;;;;6.45;4.00;;;;;;;;;;4847377;29;20034;-84
2022/07/21 10:12:02;;;;;;;12.57;4.10;;;;;;;;;;4846972;29;20030;-83
2022/07/21 10:14:34;;;;;;;5.80;4.30;;;;;;;;;;4872128;29;20032;-85
2022/07/21 10:17:06;;;;;;;6.78;4.13;;;;;;;;;;4877829;29;20070;-84
2022/07/21 10:19:36;;;;;;;10.05;4.22;;;;;;;;;;4863207;29;20058;-81
2022/07/21 10:22:10;;;;;;;4.93;3.35;;;;;;;;;;4859486;29;20056;-79
2022/07/21 10:24:38;;;;;;;4.97;3.30;;;;;;;;;;4860878;29;20041;-81
2022/07/21 10:27:05;;;;;;;6.18;4.00;;;;;;;;;;4863054;29;20034;-81
2022/07/21 10:29:52;;;;;;;5.63;3.45;;;;;;;;;;4860092;29;20013;-82
2022/07/21 10:32:20;;;;;;;6.43;3.70;;;;;;;;;;4851762;29;20437;-81
2022/07/21 10:34:51;;;;;;;4.60;3.85;;;;;;;;;;4852005;29;20443;-81
2022/07/21 10:37:36;;;;;;;7.72;4.15;;;;;;;;;;4857618;29;20026;-80
2022/07/21 10:40:05;;;;;;;4.90;3.70;;;;;;;;;;4872009;29;20033;-81
2022/07/21 10:42:31;;;;;;;5.10;3.15;;;;;;;;;;4850875;29;20101;-81
2022/07/21 10:45:03;;;;;;;6.28;3.50;;;;;;;;;;4851070;29;20437;-81
2022/07/21 10:47:30;;;;;;;;;;;;;;;;;;4870574;29;20510;-84
2022/07/21 10:49:58;;;;;;;11.48;4.20;;;;;;;;;;4853828;29;19908;-83
2022/07/21 10:52:41;;;;;;;7.40;3.90;;;;;;;;;;4854273;29;20053;-85
2022/07/21 10:55:16;;;;;;;5.65;3.53;;;;;;;;;;4853417;29;20490;-85
2022/07/21 10:58:03;;;;;;;11.57;4.00;;;;;;;;;;4846053;29;20045;-77
2022/07/21 11:00:36;;;;;;;7.28;4.05;;;;;;;;;;4797337;29;20047;-82
2022/07/21 11:03:14;;;;;;;5.00;4.13;;;;;;;;;;4796266;29;20413;-84
2022/07/21 11:06:02;;;;;;;4.43;3.78;;;;;;;;;;4797223;29;20431;-85
2022/07/21 11:08:31;;;;;;;9.32;4.07;;;;;;;;;;4807649;29;20037;-83
2022/07/21 11:11:07;;;;;;;6.97;4.40;;;;;;;;;;4790818;29;20050;-81
2022/07/21 11:13:53;;;;;;;9.05;4.63;;;;;;;;;;4790536;29;20027;-83
2022/07/21 11:16:23;;;;;;;5.55;3.65;;;;;;;;;;4810532;29;20149;-83
2022/07/21 11:18:55;;;;;;;6.97;3.60;;;;;;;;;;4798545;29;20038;-82
2022/07/21 11:21:22;;;;;;;7.97;4.20;;;;;;;;;;4798891;29;20047;-85
2022/07/21 11:23:49;;;;;;;6.18;3.72;;;;;;;;;;4801154;29;20421;-83
2022/07/21 11:26:27;;;;;;;6.95;3.90;;;;;;;;;;4798618;29;20523;-85
2022/07/21 11:29:12;;;;;;;6.13;4.35;;;;;;;;;;4814220;29;20106;-84
2022/07/21 11:31:39;;;;;;;;;;;;;;;;;;4814058;29;20083;-82
2022/07/21 11:34:07;;;;;;;7.03;3.85;;;;;;;;;;4796976;29;20337;-83
2022/07/21 11:36:41;;;;;;;10.02;4.10;;;;;;;;;;4818692;29;20062;-85
2022/07/21 11:39:11;;;;;;;6.30;3.50;;;;;;;;;;4853557;29;20040;-84
2022/07/21 11:48:27;;;;;;;7.32;4.45;;;;;;;;;;4888494;29;20018;-82
2022/07/21 11:51:42;;;;;;;3.97;3.55;;;;;;;;;;4829713;29;20057;-80
2022/07/21 11:54:41;;;;;;;7.47;4.20;;;;;;;;;;4744179;30;20032;-84
2022/07/21 11:57:11;;;;;;;6.25;3.88;;;;;;;;;;4738899;30;20044;-84
2022/07/21 11:59:59;;;;;;;8.57;4.13;;;;;;;;;;4743659;30;20052;-81
2022/07/21 12:02:44;;;;;;;8.52;4.10;;;;;;;;;;4758123;30;20033;-80
2022/07/21 12:11:39;;;;;;;5.45;4.35;;;;;;;;;;4758608;30;20043;-81
2022/07/21 12:14:07;;;;;;;6.38;4.30;;;;;;;;;;4728956;30;20393;-84
2022/07/21 12:16:47;;;;;;;6.80;3.75;;;;;;;;;;4726120;30;20423;-82
2022/07/21 12:19:16;;;;;;;7.47;4.50;;;;;;;;;;4722242;30;20048;-79
2022/07/21 12:21:49;;;;;;;13.75;5.68;;;;;;;;;;4740821;30;20105;-85
2022/07/21 12:24:19;;;;;;;14.80;4.60;;;;;;;;;;4722958;30;20436;-85
2022/07/21 12:26:46;;;;;;;4.95;3.97;;;;;;;;;;4741097;30;20475;-80
2022/07/21 12:29:32;;;;;;;10.00;4.75;;;;;;;;;;4721549;30;20044;-84
2022/07/21 12:31:59;;;;;;;5.53;3.58;;;;;;;;;;4793039;29;20061;-84
2022/07/21 12:34:26;;;;;;;6.35;3.63;;;;;;;;;;4790529;29;20039;-85
2022/07/21 12:36:52;;;;;;;7.90;6.60;;;;;;;;;;4791387;29;20043;-80
2022/07/21 12:42:10;;;;;;;7.57;4.38;;;;;;;;;;4805114;29;20466;-84
2022/07/21 12:44:37;;;;;;;5.50;4.18;;;;;;;;;;4794615;29;20102;-78
2022/07/21 12:47:18;;;;;;;6.38;3.55;;;;;;;;;;4795812;29;20095;-80
2022/07/21 12:49:59;;;;;;;5.30;4.00;;;;;;;;;;4790088;29;20026;-77
2022/07/21 12:52:26;;;;;;;4.87;3.83;;;;;;;;;;4812739;29;20031;-84
2022/07/21 12:54:52;;;;;;;5.65;3.83;;;;;;;;;;4797860;29;20035;-81
2022/07/21 12:57:18;;;;;;;10.75;4.50;;;;;;;;;;4804608;29;20034;-82
2022/07/21 12:59:44;;;;;;;4.90;4.07;;;;;;;;;;4789284;29;20055;-80
2022/07/21 13:02:11;;;;;;;5.05;3.90;;;;;;;;;;4804343;29;20034;-85
2022/07/21 13:04:54;;;;;;;10.95;4.55;;;;;;;;;;4809826;29;20046;-86
2022/07/21 13:07:27;;;;;;;10.02;4.78;;;;;;;;;;4811681;29;20042;-86
2022/07/21 13:09:56;;;;;;;7.30;3.90;;;;;;;;;;4812042;29;20035;-84
2022/07/21 13:12:35;;;;;;;10.00;4.18;;;;;;;;;;4811609;29;20067;-82
2022/07/21 13:15:30;;;;;;;8.88;4.22;;;;;;;;;;4809571;29;20038;-81
2022/07/21 13:18:08;;;;;;;8.38;4.60;;;;;;;;;;4794208;29;20158;-81
2022/07/21 13:20:43;;;;;;;9.43;4.35;;;;;;;;;;4791867;29;20035;-86
2022/07/21 13:23:12;;;;;;;7.68;5.95;;;;;;;;;;4794185;29;20051;-83
2022/07/21 13:26:02;;;;;;;11.70;4.57;;;;;;;;;;4794251;29;20070;-84
2022/07/21 13:28:48;;;;;;;4.18;3.65;;;;;;;;;;4802840;29;20095;-83
2022/07/21 13:31:15;;;;;;;6.22;4.10;;;;;;;;;;4804313;29;20035;-84
2022/07/21 13:33:41;;;;;;;6.20;4.05;;;;;;;;;;4833193;29;20041;-83
2022/07/21 13:36:08;;;;;;;8.85;4.78;;;;;;;;;;4860993;29;20384;-77
2022/07/21 13:38:34;;;;;;;6.13;4.10;;;;;;;;;;4844159;29;20077;-84
2022/07/21 13:41:00;;;;;;;8.88;3.97;;;;;;;;;;4860793;29;20021;-83
2022/07/21 13:43:26;;;;;;;6.88;3.58;;;;;;;;;;4860878;29;20033;-81
2022/07/21 13:45:52;;;;;;;10.25;4.47;;;;;;;;;;4844267;29;20037;-79
2022/07/21 13:48:18;;;;;;;6.80;4.30;;;;;;;;;;4861011;29;20029;-83
2022/07/21 13:50:45;;;;;;;6.35;4.40;;;;;;;;;;4844282;29;20369;-81
2022/07/21 13:53:11;;;;;;;8.98;4.30;;;;;;;;;;4844148;29;20085;-83
2022/07/21 13:55:37;;;;;;;6.90;4.38;;;;;;;;;;4860593;29;20544;-81
2022/07/21 13:58:06;;;;;;;14.63;4.57;;;;;;;;;;4860549;29;20477;-82
2022/07/21 14:00:32;;;;;;;9.27;4.97;;;;;;;;;;4860681;29;20036;-83
2022/07/21 14:02:58;;;;;;;7.22;4.38;;;;;;;;;;4843775;29;20033;-83
2022/07/21 14:05:24;;;;;;;5.13;4.25;;;;;;;;;;4844124;29;20046;-82
2022/07/21 14:07:50;;;;;;;5.20;4.28;;;;;;;;;;4860513;29;20120;-83
2022/07/21 14:10:16;;;;;;;8.40;3.80;;;;;;;;;;4860807;29;20030;-82
2022/07/21 14:12:43;;;;;;;6.40;3.88;;;;;;;;;;4844374;29;20089;-83
2022/07/21 14:15:09;;;;;;;9.00;4.05;;;;;;;;;;4846700;29;20473;-83
2022/07/21 14:17:35;;;;;;;10.18;4.65;;;;;;;;;;4847502;29;20021;-82
2022/07/21 14:20:01;;;;;;;9.65;4.03;;;;;;;;;;4864927;29;20032;-81
2022/07/21 14:22:28;;;;;;;6.55;4.10;;;;;;;;;;4853348;29;20060;-84
2022/07/21 14:27:40;;;;;;;6.88;4.45;;;;;;;;;;4864085;29;20048;-83
2022/07/21 14:30:07;;;;;;;5.95;4.10;;;;;;;;;;4847264;29;20120;-82
2022/07/21 14:32:33;;;;;;;8.40;5.07;;;;;;;;;;4863747;29;20041;-83
2022/07/21 14:34:59;;;;;;;13.60;4.18;;;;;;;;;;4846532;29;20060;-82
2022/07/21 14:37:25;;;;;;;7.65;3.90;;;;;;;;;;4846878;29;20041;-83
2022/07/21 14:39:51;;;;;;;7.97;4.57;;;;;;;;;;4846891;29;20105;-83
2022/07/21 14:42:17;;;;;;;7.75;4.05;;;;;;;;;;4863498;29;20026;-83
2022/07/21 14:44:45;;;;;;;7.82;4.45;;;;;;;;;;4846398;29;20116;-80
2022/07/21 14:47:11;;;;;;;11.40;5.30;;;;;;;;;;4846373;29;20041;-82
2022/07/21 14:49:38;;;;;;;8.57;4.38;;;;;;;;;;4846502;29;20026;-80
2022/07/21 14:52:04;;;;;;;11.30;5.95;;;;;;;;;;4846169;29;20041;-82
2022/07/21 14:54:30;;;;;;;8.68;4.78;;;;;;;;;;4863100;29;20033;-82
2022/07/21 14:56:56;;;;;;;7.35;4.15;;;;;;;;;;4862967;29;20053;-79
2022/07/21 14:59:23;;;;;;;7.80;4.72;;;;;;;;;;4862858;29;20030;-76
2022/07/21 15:01:49;;;;;;;8.50;4.53;;;;;;;;;;4862727;29;20030;-76
2022/07/21 15:04:23;;;;;;;15.50;5.47;;;;;;;;;;4884811;29;20052;-80
2022/07/21 15:07:00;;;;;;;9.85;4.18;;;;;;;;;;4869641;29;20037;-80
2022/07/21 15:09:59;;;;;;;12.20;4.35;;;;;;;;;;4884663;29;20077;-80
2022/07/21 15:12:36;;;;;;;10.77;4.18;;;;;;;;;;4868896;29;20044;-78
2022/07/21 15:15:06;;;;;;;13.65;4.90;;;;;;;;;;4869433;29;20034;-79